Share

Julian, NE

The Nincehelser Farm (KNEPERU2) Elev 1061 ft | 40.50 °N, 95.78 °W | Change Station

Current weather conditions updated 6 minutes ago

Mostly Cloudy
Mostly Cloudy
59.5 °F
Feels Like 59.5 °F
N
1.7
Wind Variable Wind from SSW
Sunrise 6:36 AM
Sunset 8:09 PM
Moon Waning Gibbous

Today is forecast to be Much Cooler than yesterday. Showers and thundershowers early.

Pressure 29.95 in
Visibility 9.0 miles
Clouds Mostly Cloudy 4300 ft
Mostly Cloudy 4800 ft
Mostly Cloudy 12000 ft
Dew Point 57 °F
Humidity 91%
Rainfall 0.00 in
Snow Depth Not available.
UV 0 out of 16
Pollen 8.30 out of 12
Air Quality Not available.
Flu Activity Sporadic
METAR KSDA 211015Z AUTO 00000KT 9SM BKN043 BKN048 BKN120 14/13 A2995 RMK AO2

More Conditions Fewer Conditions

Pressure 29.95 in
Visibility 9.0 miles
Clouds Mostly Cloudy 4300 ft
Mostly Cloudy 4800 ft
Mostly Cloudy 12000 ft
Dew Point 57 °F
Humidity 91%
Rainfall 0.00 in
Snow Depth Not available.
UV 0 out of 16
Pollen 8.30 out of 12
Air Quality Not available.
Flu Activity Sporadic
METAR KSDA 211015Z AUTO 00000KT 9SM BKN043 BKN048 BKN120 14/13 A2995 RMK AO2

More Conditions Fewer Conditions

10-Day Weather Forecast

Almanac

Astronomy

Apr. 21, 2014 Rise Set
Actual Time 6:36 AM CDT 8:09 PM CDT
Civil Twilight 6:08 AM CDT 8:37 PM CDT
Nautical Twilight 5:33 AM CDT 9:12 PM CDT
Astronomical Twilight 4:56 AM CDT 9:49 PM CDT
Moon 1:40 AM CDT 12:04 PM CDT
Length of Visible Light 14h 29m
Length of Day
13h 32m
Tomorrow will be 2m 28s longer.
Waning Gibbous, 60% of the Moon is Illuminated
Today
Waning Gibbous
Apr 22
Last Quarter
Apr 29
New
May 6
First Quarter
May 14
Full

Today's Extremes

State Highs State Lows

Community

  • Snowy Robin
    Snowy Robin
  • Sun Pillar and Geese
    Sun Pillar and Geese
  • Showers on the Way
    Showers on the Way
  • Easter Morning Fog
    Easter Morning Fog
  • Easter Dance
    Easter Dance

WunderPhotos

Upload Photos

1,703,587 photos uploaded!

WunderBlogs® & News

Nearby

Snow Depth

Station Depth Elevation
No new snow has been reported.

Coastal Water Temperatures

Place Temperature
No Stations Reporting

Earthquake Activity

City Distance Mag. Time & Date
No recent earthquake activity has been reported nearby.
Minimum magnitude displayed is 2.5.

Nearby Weather Stations

Station Location Temp. Dew Point Humidity Wind Precip. Elev Updated Type
MesoWest HOWE , Stella, NE 62 °F - - North  at  - 0.00 in / hr 1019 ft 3:40 AM CDT MADIS
The Nincehelser Farm, Peru, NE 59.5 °F 57 °F 91% SSW  at  1.7 mph - / hr 1061 ft 5:32 AM CDT Normal
MesoWest NEBCTY , Nebraska City, NE 60 °F - - North  at  - 0.00 in / hr 994 ft 4:35 AM CDT MADIS
Hawkins Home - Northeast, Syracuse, NE 58.2 °F 56 °F 91% SSE  at  4.6 mph 0.00 in / hr 1100 ft 5:39 AM CDT Rapid Fire

Show More Stations Show Fewer Stations

What do you think?

We're not finished. Please let us know what you like, what you don't like, and what you are still missing.